KELN/ELN METAR and TAF weather

Enter ICAO airport designator
Station Type Date Time Source
KELN METAR 2021/01/22 04:53 UTC NOAA

KELN 220453Z AUTO 00000KT 10SM OVC055 01/M02 A3008 RMK AO2 SLP199 T00061017 $


Station Type Date Time Source
KELN Decoded METAR 2021/01/22 04:53 UTC NOAA

ELLENSBURG BOWERS FIELD, WA, United States (KELN) 47-02N 120-32W 519M
Jan 21, 2021 - 11:53 PM EST / 2021.01.22 0453 UTC
Wind: Calm:0
Visibility: 10 mile(s):0
Sky conditions: overcast
Temperature: 33.1 F (0.6 C)
Dew Point: 28.9 F (-1.7 C)
Relative Humidity: 84%
Pressure (altimeter): 30.08 in. Hg (1018 hPa)
ob: KELN 220453Z AUTO 00000KT 10SM OVC055 01/M02 A3008 RMK AO2 SLP199 T00061017
cycle: 5

Station Type Date Time Source
KELN TAF UTC NOAA

Error!

Example: see airport list